createdAt,value
2019-05-15T00:02:33.089Z,1.71
2019-05-15T00:06:35.139Z,1.69
2019-05-15T00:10:38.925Z,1.53
2019-05-15T00:14:41.022Z,1.52
2019-05-15T00:18:44.604Z,1.53
2019-05-15T00:22:48.390Z,1.50
2019-05-15T00:26:50.383Z,1.41
2019-05-15T00:30:52.489Z,1.34
2019-05-15T00:34:54.621Z,1.23
2019-05-15T00:38:58.945Z,1.16
2019-05-15T00:43:03.275Z,1.10
2019-05-15T00:47:05.731Z,1.05
2019-05-15T00:51:08.483Z,1.00
2019-05-15T00:55:12.029Z,1.01
2019-05-15T00:59:24.106Z,0.91
2019-05-15T01:03:18.380Z,0.90
2019-05-15T01:07:20.549Z,0.84
2019-05-15T01:11:22.492Z,0.77
2019-05-15T01:15:24.792Z,0.72
2019-05-15T01:19:28.728Z,0.70
2019-05-15T01:23:30.876Z,0.70
2019-05-15T01:27:32.845Z,0.69
2019-05-15T01:31:34.965Z,0.67
2019-05-15T01:35:38.363Z,0.67
2019-05-15T01:39:40.677Z,0.67
2019-05-15T01:43:42.906Z,0.71
2019-05-15T01:47:45.140Z,0.68
2019-05-15T01:51:47.957Z,0.62
2019-05-15T01:55:50.087Z,0.53
2019-05-15T01:59:57.222Z,0.50
2019-05-15T02:03:56.086Z,0.44
2019-05-15T02:07:58.586Z,0.43
2019-05-15T02:12:00.729Z,0.40
2019-05-15T02:16:02.910Z,0.38
2019-05-15T02:20:08.147Z,0.38
2019-05-15T02:24:11.025Z,0.35
2019-05-15T02:28:13.144Z,0.38
2019-05-15T02:32:15.431Z,0.39
2019-05-15T02:36:20.543Z,0.40
2019-05-15T02:40:21.465Z,0.41
2019-05-15T02:44:24.027Z,0.37
2019-05-15T02:48:28.973Z,0.39
2019-05-15T02:52:30.191Z,0.41
2019-05-15T02:56:32.454Z,0.49
2019-05-15T03:00:45.258Z,0.52
2019-05-15T03:04:40.116Z,0.58
2019-05-15T03:08:42.409Z,0.68
2019-05-15T03:12:44.559Z,0.78
2019-05-15T03:16:49.525Z,0.90
2019-05-15T03:20:50.486Z,1.04
2019-05-15T03:24:52.669Z,1.17
2019-05-15T03:28:54.806Z,1.39
2019-05-15T03:33:07.751Z,1.56
2019-05-15T03:37:03.486Z,1.80
2019-05-15T03:41:04.957Z,2.10
2019-05-15T03:45:10.036Z,2.43
2019-05-15T03:49:11.512Z,2.72
2019-05-15T03:53:13.724Z,3.06
2019-05-15T03:57:20.055Z,3.38
2019-05-15T04:01:30.036Z,3.72
2019-05-15T04:05:23.679Z,4.02
2019-05-15T04:09:29.158Z,4.49
2019-05-15T04:13:30.363Z,4.83
2019-05-15T04:17:32.423Z,5.26
2019-05-15T04:21:34.997Z,5.71
2019-05-15T04:25:39.171Z,6.20
2019-05-15T04:29:41.539Z,6.48
2019-05-15T04:33:44.173Z,7.06
2019-05-15T04:37:49.161Z,7.54
2019-05-15T04:41:51.074Z,7.80
2019-05-15T04:45:53.511Z,8.11
2019-05-15T04:49:55.683Z,8.49
2019-05-15T04:53:58.611Z,8.71
2019-05-15T04:58:01.050Z,8.95
2019-05-15T05:02:16.234Z,9.24
2019-05-15T05:06:09.662Z,9.58
2019-05-15T05:10:13.523Z,9.89
2019-05-15T05:14:15.594Z,10.06
2019-05-15T05:18:19.040Z,10.32
2019-05-15T05:22:21.213Z,10.49
2019-05-15T05:26:23.253Z,10.67
2019-05-15T05:30:25.395Z,10.92
2019-05-15T05:34:28.365Z,11.20
2019-05-15T05:38:30.958Z,11.27
2019-05-15T05:42:33.097Z,11.60
2019-05-15T05:46:34.922Z,11.72
2019-05-15T05:50:39.056Z,11.78
2019-05-15T05:54:41.209Z,11.83
2019-05-15T05:58:43.159Z,12.05
2019-05-15T06:02:48.835Z,12.24
2019-05-15T06:07:06.201Z,12.25
2019-05-15T06:10:55.483Z,12.64
2019-05-15T06:14:58.041Z,12.77
2019-05-15T06:19:00.116Z,13.05
2019-05-15T06:23:02.356Z,13.10
2019-05-15T06:27:04.447Z,12.95
2019-05-15T06:31:08.663Z,13.20
2019-05-15T06:35:11.800Z,13.38
2019-05-15T06:39:13.618Z,13.59
2019-05-15T06:43:15.875Z,13.46
2019-05-15T06:47:18.131Z,13.61
2019-05-15T06:51:20.291Z,14.01
2019-05-15T06:55:22.457Z,13.88
2019-05-15T06:59:24.577Z,14.25
2019-05-15T07:03:29.387Z,14.26
2019-05-15T07:07:31.293Z,14.40
2019-05-15T07:11:33.579Z,14.65
2019-05-15T07:15:38.213Z,14.52
2019-05-15T07:19:39.496Z,14.64
2019-05-15T07:23:41.635Z,15.03
2019-05-15T07:27:43.781Z,14.98
2019-05-15T07:31:47.837Z,14.66
2019-05-15T07:35:50.322Z,15.07
2019-05-15T07:39:52.063Z,15.40
2019-05-15T07:43:54.085Z,15.47
2019-05-15T07:47:58.479Z,15.90
2019-05-15T07:52:00.312Z,15.92
2019-05-15T07:56:02.087Z,15.97
2019-05-15T08:00:05.434Z,15.96
2019-05-15T08:04:22.834Z,16.20
2019-05-15T08:08:10.717Z,16.29
2019-05-15T08:12:12.564Z,16.00
2019-05-15T08:16:14.742Z,16.05
2019-05-15T08:20:18.753Z,16.32
2019-05-15T08:24:20.579Z,16.51
2019-05-15T08:28:23.368Z,16.49
2019-05-15T08:32:25.261Z,16.03
2019-05-15T08:36:27.990Z,15.69
2019-05-15T08:40:30.693Z,16.32
2019-05-15T08:44:32.512Z,16.15
2019-05-15T08:48:34.495Z,15.58
2019-05-15T08:52:39.086Z,16.20
2019-05-15T08:56:40.017Z,16.46
2019-05-15T09:00:44.098Z,16.25
2019-05-15T09:04:45.320Z,15.57
2019-05-15T09:08:49.076Z,16.09
2019-05-15T09:12:53.932Z,15.64
2019-05-15T09:16:54.358Z,15.42
2019-05-15T09:20:59.084Z,15.47
2019-05-15T09:24:59.845Z,15.95
2019-05-15T09:29:01.753Z,16.37
2019-05-15T09:33:03.557Z,16.48
2019-05-15T09:37:05.501Z,16.58
2019-05-15T09:41:08.992Z,15.95
2019-05-15T09:45:11.104Z,15.92
2019-05-15T09:49:12.859Z,16.15
2019-05-15T09:53:15.163Z,16.19
2019-05-15T09:57:18.907Z,16.16
2019-05-15T10:01:21.171Z,16.20
2019-05-15T10:05:23.350Z,16.24
2019-05-15T10:09:28.430Z,15.76
2019-05-15T10:13:30.017Z,16.02
2019-05-15T10:17:33.081Z,15.79
2019-05-15T10:21:35.193Z,15.84
2019-05-15T10:25:38.903Z,15.99
2019-05-15T10:29:41.249Z,16.07
2019-05-15T10:33:43.474Z,15.94
2019-05-15T10:37:48.523Z,16.01
2019-05-15T10:41:49.445Z,16.08
2019-05-15T10:45:54.584Z,16.44
2019-05-15T10:49:55.262Z,16.17
2019-05-15T10:53:57.183Z,16.31
2019-05-15T10:57:59.324Z,16.58
2019-05-15T11:02:01.437Z,16.52
2019-05-15T11:06:03.694Z,16.09
2019-05-15T11:10:05.867Z,16.53
2019-05-15T11:14:09.176Z,17.27
2019-05-15T11:18:11.533Z,16.52
2019-05-15T11:22:14.710Z,16.55
2019-05-15T11:26:19.244Z,16.47
2019-05-15T11:30:20.486Z,16.69
2019-05-15T11:34:22.553Z,16.96
2019-05-15T11:38:24.555Z,16.71
2019-05-15T11:42:28.890Z,17.07
2019-05-15T11:46:30.572Z,17.01
2019-05-15T11:50:32.698Z,16.51
2019-05-15T11:54:35.007Z,16.68
2019-05-15T11:58:38.950Z,16.75
2019-05-15T12:02:40.638Z,16.68
2019-05-15T12:06:56.988Z,16.65
2019-05-15T12:10:46.828Z,17.22
2019-05-15T12:14:49.463Z,16.63
2019-05-15T12:18:51.602Z,16.97
2019-05-15T12:22:53.448Z,17.50
2019-05-15T12:26:55.704Z,16.95
2019-05-15T12:30:59.665Z,17.19
2019-05-15T12:35:01.037Z,17.07
2019-05-15T12:39:09.476Z,16.97
2019-05-15T13:03:25.392Z,17.27
2019-05-15T13:07:28.604Z,16.92
2019-05-15T13:11:31.032Z,16.98
2019-05-15T13:15:32.802Z,17.43
2019-05-15T13:19:34.721Z,17.72
2019-05-15T13:23:38.579Z,17.82
2019-05-15T13:27:40.124Z,18.03
2019-05-15T13:31:43.110Z,17.68
2019-05-15T13:35:45.698Z,18.13
2019-05-15T13:39:48.577Z,17.84
2019-05-15T13:43:50.494Z,17.76
2019-05-15T13:47:52.267Z,18.27
2019-05-15T13:51:53.996Z,17.85
2019-05-15T13:55:55.831Z,18.05
2019-05-15T13:59:58.883Z,18.23
2019-05-15T14:04:00.898Z,18.13
2019-05-15T14:08:02.687Z,18.38
2019-05-15T14:12:04.553Z,18.70
2019-05-15T14:16:09.408Z,18.84
2019-05-15T14:20:10.684Z,18.38
2019-05-15T14:24:12.467Z,18.02
2019-05-15T14:28:15.255Z,18.14
2019-05-15T14:32:32.791Z,18.69
2019-05-15T14:36:22.320Z,19.11
2019-05-15T14:40:25.265Z,19.72
2019-05-15T14:44:27.080Z,21.28
2019-05-15T14:48:30.132Z,21.65
2019-05-15T14:52:32.005Z,23.41
2019-05-15T14:56:33.770Z,22.93
2019-05-15T15:00:35.605Z,23.02
2019-05-15T15:04:40.278Z,24.71
2019-05-15T15:08:43.165Z,24.71
2019-05-15T15:12:45.306Z,22.95
2019-05-15T15:16:48.947Z,22.10
2019-05-15T15:20:50.543Z,22.23
2019-05-15T15:24:52.340Z,21.76
2019-05-15T15:28:54.184Z,22.71
2019-05-15T15:32:57.683Z,21.66
2019-05-15T15:36:59.664Z,22.12
2019-05-15T15:41:01.471Z,23.02
2019-05-15T15:45:03.505Z,22.47
2019-05-15T15:49:05.429Z,23.87
2019-05-15T15:53:09.081Z,20.94
2019-05-15T15:57:12.809Z,19.93
2019-05-15T16:01:14.592Z,18.57
2019-05-15T16:05:18.969Z,18.57
2019-05-15T16:09:20.333Z,18.09
2019-05-15T16:13:22.172Z,17.60
2019-05-15T16:17:23.936Z,17.18
2019-05-15T16:21:28.568Z,16.71
2019-05-15T16:25:29.292Z,16.20
2019-05-15T16:29:31.087Z,15.70
2019-05-15T16:33:32.858Z,15.50
2019-05-15T16:37:34.663Z,15.66
2019-05-15T16:41:38.334Z,15.39
2019-05-15T16:45:40.256Z,14.90
2019-05-15T16:49:42.042Z,14.69
2019-05-15T16:53:43.898Z,14.55
2019-05-15T16:57:47.806Z,14.44
2019-05-15T17:01:49.206Z,14.07
2019-05-15T17:05:51.013Z,13.82
2019-05-15T17:09:52.868Z,13.72
2019-05-15T17:13:54.681Z,13.76
2019-05-15T17:17:58.328Z,13.44
2019-05-15T17:21:59.911Z,13.28
2019-05-15T17:26:02.220Z,13.06
2019-05-15T17:30:04.062Z,12.86
2019-05-15T17:34:05.933Z,12.71
2019-05-15T17:38:07.973Z,12.58
2019-05-15T17:42:09.920Z,12.47
2019-05-15T17:46:12.268Z,12.36
2019-05-15T17:50:14.963Z,12.15
2019-05-15T17:54:18.201Z,11.99
2019-05-15T17:58:20.633Z,11.74
2019-05-15T18:02:23.589Z,11.52
2019-05-15T18:06:28.644Z,11.45
2019-05-15T18:10:29.613Z,11.35
2019-05-15T18:14:31.713Z,11.13
2019-05-15T18:18:33.825Z,10.73
2019-05-15T18:22:37.905Z,10.58
2019-05-15T18:26:39.639Z,10.40
2019-05-15T18:30:41.758Z,10.28
2019-05-15T18:34:43.768Z,10.19
2019-05-15T18:38:48.089Z,10.10
2019-05-15T18:42:49.740Z,9.96
2019-05-15T18:46:51.894Z,9.90
2019-05-15T18:50:54.035Z,9.76
2019-05-15T18:54:58.706Z,9.57
2019-05-15T18:59:00.944Z,9.43
2019-05-15T19:03:15.990Z,9.26
2019-05-15T19:07:08.890Z,9.01
2019-05-15T19:11:14.404Z,8.78
2019-05-15T19:15:17.892Z,8.58
2019-05-15T19:19:20.438Z,8.42
2019-05-15T19:23:22.510Z,8.22
2019-05-15T19:27:24.766Z,7.95
2019-05-15T19:31:29.824Z,7.79
2019-05-15T19:35:30.746Z,7.61
2019-05-15T19:39:32.924Z,7.46
2019-05-15T19:43:34.977Z,7.29
2019-05-15T19:47:38.688Z,7.14
2019-05-15T19:51:41.177Z,6.98
2019-05-15T19:55:43.333Z,6.90
2019-05-15T19:59:45.465Z,6.76
2019-05-15T20:03:52.842Z,6.62
2019-05-15T20:07:52.900Z,6.59
2019-05-15T20:11:54.996Z,6.53
2019-05-15T20:15:58.031Z,6.43
2019-05-15T20:20:01.594Z,6.33
2019-05-15T20:24:04.009Z,6.11
2019-05-15T20:28:08.260Z,6.09
2019-05-15T20:32:11.262Z,6.03
2019-05-15T20:36:13.610Z,6.10
2019-05-15T20:40:17.955Z,6.08
2019-05-15T20:44:19.646Z,6.09
2019-05-15T20:48:21.740Z,5.96
2019-05-15T20:52:23.890Z,5.85
2019-05-15T20:56:28.146Z,5.68
2019-05-15T21:00:30.053Z,5.52
2019-05-15T21:04:32.375Z,5.33
2019-05-15T21:08:35.439Z,5.25
2019-05-15T21:12:40.461Z,5.19
2019-05-15T21:16:41.352Z,5.19
2019-05-15T21:20:43.374Z,5.11
2019-05-15T21:24:45.511Z,5.01
2019-05-15T21:28:48.175Z,4.93
2019-05-15T21:32:50.541Z,4.87
2019-05-15T21:36:52.722Z,4.81
2019-05-15T21:40:55.140Z,4.76
2019-05-15T21:44:58.210Z,4.69
2019-05-15T21:49:00.803Z,4.54
2019-05-15T21:53:03.152Z,4.33
2019-05-15T21:57:24.932Z,4.27
2019-05-15T22:01:11.182Z,4.19
2019-05-15T22:05:14.228Z,4.09
2019-05-15T22:09:19.364Z,3.96
2019-05-15T22:13:22.066Z,3.94
2019-05-15T22:17:25.207Z,3.94
2019-05-15T22:21:27.815Z,3.82
2019-05-15T22:25:30.049Z,3.75
2019-05-15T22:29:32.550Z,3.68
2019-05-15T22:33:34.774Z,3.58
2019-05-15T22:37:41.135Z,3.51
2019-05-15T22:41:41.285Z,3.49
2019-05-15T22:45:43.493Z,3.41
2019-05-15T22:49:45.542Z,3.35
2019-05-15T22:53:48.909Z,3.35
2019-05-15T22:57:51.104Z,3.30
2019-05-15T23:01:53.476Z,3.18
2019-05-15T23:05:57.969Z,3.11
2019-05-15T23:09:59.850Z,3.10
2019-05-15T23:14:02.077Z,3.11
2019-05-15T23:18:04.289Z,3.10
2019-05-15T23:22:08.345Z,3.11
2019-05-15T23:26:10.545Z,3.13
2019-05-15T23:30:13.853Z,3.17
2019-05-15T23:34:18.530Z,3.12
2019-05-15T23:38:19.770Z,2.95
2019-05-15T23:42:21.901Z,2.81
2019-05-15T23:46:24.035Z,2.81
2019-05-15T23:50:28.636Z,2.82
2019-05-15T23:54:30.098Z,2.80
2019-05-15T23:58:32.171Z,2.75
